sensor_id;sensor_type;location;lat;lon;timestamp;P1;durP1;ratioP1;P2;durP2;ratioP2
64615;SDS011;51027;42.162;24.754;2023-07-13T03:32:47;21.70;;;8.82;;
64615;SDS011;51027;42.162;24.754;2023-07-13T03:35:13;19.77;;;8.15;;
64615;SDS011;51027;42.162;24.754;2023-07-13T03:37:38;17.92;;;9.13;;
64615;SDS011;51027;42.162;24.754;2023-07-13T03:40:07;19.40;;;8.10;;
64615;SDS011;51027;42.162;24.754;2023-07-13T03:42:34;18.17;;;8.52;;
64615;SDS011;51027;42.162;24.754;2023-07-13T03:45:00;17.73;;;8.50;;
64615;SDS011;51027;42.162;24.754;2023-07-13T03:47:25;18.17;;;8.27;;
64615;SDS011;51027;42.162;24.754;2023-07-13T03:49:51;18.00;;;8.88;;
64615;SDS011;51027;42.162;24.754;2023-07-13T03:52:16;17.23;;;8.27;;
64615;SDS011;51027;42.162;24.754;2023-07-13T03:54:42;17.45;;;7.68;;
64615;SDS011;51027;42.162;24.754;2023-07-13T03:57:07;18.75;;;8.57;;
64615;SDS011;51027;42.162;24.754;2023-07-13T03:59:33;19.05;;;8.73;;
64615;SDS011;51027;42.162;24.754;2023-07-13T04:01:59;19.02;;;8.63;;
64615;SDS011;51027;42.162;24.754;2023-07-13T04:04:24;17.67;;;8.38;;
64615;SDS011;51027;42.162;24.754;2023-07-13T04:06:49;18.08;;;8.23;;
64615;SDS011;51027;42.162;24.754;2023-07-13T04:09:18;19.20;;;9.45;;
64615;SDS011;51027;42.162;24.754;2023-07-13T04:11:44;19.27;;;9.77;;
64615;SDS011;51027;42.162;24.754;2023-07-13T04:14:09;19.85;;;9.13;;
64615;SDS011;51027;42.162;24.754;2023-07-13T04:16:35;18.42;;;10.13;;
64615;SDS011;51027;42.162;24.754;2023-07-13T04:19:00;18.40;;;9.07;;
64615;SDS011;51027;42.162;24.754;2023-07-13T04:21:29;19.70;;;9.45;;
64615;SDS011;51027;42.162;24.754;2023-07-13T04:23:55;19.45;;;9.32;;
64615;SDS011;51027;42.162;24.754;2023-07-13T04:26:21;23.30;;;10.32;;
64615;SDS011;51027;42.162;24.754;2023-07-13T04:28:47;22.85;;;10.25;;
64615;SDS011;51027;42.162;24.754;2023-07-13T04:31:14;21.17;;;10.45;;
64615;SDS011;51027;42.162;24.754;2023-07-13T04:33:39;22.33;;;10.48;;
64615;SDS011;51027;42.162;24.754;2023-07-13T04:36:05;21.02;;;10.40;;
64615;SDS011;51027;42.162;24.754;2023-07-13T04:38:32;22.27;;;11.43;;
64615;SDS011;51027;42.162;24.754;2023-07-13T04:41:02;21.13;;;11.52;;
64615;SDS011;51027;42.162;24.754;2023-07-13T04:43:30;21.35;;;11.00;;
64615;SDS011;51027;42.162;24.754;2023-07-13T04:45:56;24.08;;;12.05;;
64615;SDS011;51027;42.162;24.754;2023-07-13T04:48:22;22.02;;;11.18;;
64615;SDS011;51027;42.162;24.754;2023-07-13T04:50:56;22.35;;;11.85;;
64615;SDS011;51027;42.162;24.754;2023-07-13T04:53:23;21.98;;;11.25;;
64615;SDS011;51027;42.162;24.754;2023-07-13T04:55:48;22.05;;;10.50;;
64615;SDS011;51027;42.162;24.754;2023-07-13T04:58:14;23.00;;;11.50;;
64615;SDS011;51027;42.162;24.754;2023-07-13T05:00:39;21.08;;;10.77;;
64615;SDS011;51027;42.162;24.754;2023-07-13T05:03:05;24.52;;;11.32;;
64615;SDS011;51027;42.162;24.754;2023-07-13T05:05:30;25.58;;;11.50;;
64615;SDS011;51027;42.162;24.754;2023-07-13T05:07:56;23.98;;;12.20;;
64615;SDS011;51027;42.162;24.754;2023-07-13T05:10:21;22.23;;;11.60;;
64615;SDS011;51027;42.162;24.754;2023-07-13T05:12:47;26.75;;;12.50;;
64615;SDS011;51027;42.162;24.754;2023-07-13T05:15:13;22.52;;;11.02;;
64615;SDS011;51027;42.162;24.754;2023-07-13T05:17:39;23.27;;;10.93;;
64615;SDS011;51027;42.162;24.754;2023-07-13T05:20:05;21.88;;;10.93;;
64615;SDS011;51027;42.162;24.754;2023-07-13T05:22:32;23.92;;;11.75;;
64615;SDS011;51027;42.162;24.754;2023-07-13T05:25:00;21.05;;;10.80;;
64615;SDS011;51027;42.162;24.754;2023-07-13T05:27:26;21.67;;;11.35;;
64615;SDS011;51027;42.162;24.754;2023-07-13T05:29:51;22.85;;;11.45;;
64615;SDS011;51027;42.162;24.754;2023-07-13T05:32:17;23.33;;;11.15;;
64615;SDS011;51027;42.162;24.754;2023-07-13T05:34:43;22.30;;;11.02;;
64615;SDS011;51027;42.162;24.754;2023-07-13T05:37:09;22.20;;;12.10;;
64615;SDS011;51027;42.162;24.754;2023-07-13T05:39:35;23.38;;;11.63;;
64615;SDS011;51027;42.162;24.754;2023-07-13T05:42:01;21.65;;;11.85;;
64615;SDS011;51027;42.162;24.754;2023-07-13T05:44:27;22.35;;;11.00;;
64615;SDS011;51027;42.162;24.754;2023-07-13T05:46:52;20.92;;;10.55;;
64615;SDS011;51027;42.162;24.754;2023-07-13T05:49:18;20.80;;;10.77;;
64615;SDS011;51027;42.162;24.754;2023-07-13T05:51:43;19.60;;;11.10;;
64615;SDS011;51027;42.162;24.754;2023-07-13T05:54:09;18.10;;;9.57;;
64615;SDS011;51027;42.162;24.754;2023-07-13T05:56:34;19.75;;;10.40;;
64615;SDS011;51027;42.162;24.754;2023-07-13T05:59:00;21.45;;;10.30;;
64615;SDS011;51027;42.162;24.754;2023-07-13T06:01:25;19.13;;;9.93;;
64615;SDS011;51027;42.162;24.754;2023-07-13T06:03:51;19.55;;;9.85;;
64615;SDS011;51027;42.162;24.754;2023-07-13T06:06:16;20.63;;;9.88;;
64615;SDS011;51027;42.162;24.754;2023-07-13T06:08:42;21.52;;;10.18;;
64615;SDS011;51027;42.162;24.754;2023-07-13T06:11:09;20.65;;;10.10;;
64615;SDS011;51027;42.162;24.754;2023-07-13T06:13:39;20.88;;;10.45;;
64615;SDS011;51027;42.162;24.754;2023-07-13T06:16:04;19.83;;;9.93;;
64615;SDS011;51027;42.162;24.754;2023-07-13T06:18:34;20.15;;;9.68;;
64615;SDS011;51027;42.162;24.754;2023-07-13T06:21:00;18.65;;;9.52;;
64615;SDS011;51027;42.162;24.754;2023-07-13T06:23:30;18.83;;;9.18;;
64615;SDS011;51027;42.162;24.754;2023-07-13T06:25:55;19.75;;;8.57;;
64615;SDS011;51027;42.162;24.754;2023-07-13T06:28:21;17.90;;;8.85;;
64615;SDS011;51027;42.162;24.754;2023-07-13T06:30:46;18.33;;;9.10;;
64615;SDS011;51027;42.162;24.754;2023-07-13T06:33:12;16.98;;;8.70;;
64615;SDS011;51027;42.162;24.754;2023-07-13T06:35:37;18.33;;;8.70;;
64615;SDS011;51027;42.162;24.754;2023-07-13T06:38:03;17.08;;;8.80;;
64615;SDS011;51027;42.162;24.754;2023-07-13T06:40:29;17.77;;;8.60;;
64615;SDS011;51027;42.162;24.754;2023-07-13T06:42:55;17.98;;;9.13;;
64615;SDS011;51027;42.162;24.754;2023-07-13T06:45:21;18.70;;;9.07;;
64615;SDS011;51027;42.162;24.754;2023-07-13T06:47:46;18.55;;;8.98;;
64615;SDS011;51027;42.162;24.754;2023-07-13T06:50:11;17.42;;;8.63;;
64615;SDS011;51027;42.162;24.754;2023-07-13T06:52:37;18.23;;;9.35;;
64615;SDS011;51027;42.162;24.754;2023-07-13T06:55:02;17.65;;;8.85;;
64615;SDS011;51027;42.162;24.754;2023-07-13T06:57:28;17.35;;;8.07;;
64615;SDS011;51027;42.162;24.754;2023-07-13T06:59:53;18.98;;;9.50;;
64615;SDS011;51027;42.162;24.754;2023-07-13T07:02:19;17.42;;;9.13;;
64615;SDS011;51027;42.162;24.754;2023-07-13T07:04:44;17.48;;;9.15;;
64615;SDS011;51027;42.162;24.754;2023-07-13T07:07:10;16.88;;;8.63;;
64615;SDS011;51027;42.162;24.754;2023-07-13T07:09:35;18.05;;;9.43;;
64615;SDS011;51027;42.162;24.754;2023-07-13T07:12:01;18.05;;;8.68;;
64615;SDS011;51027;42.162;24.754;2023-07-13T07:14:28;18.15;;;9.13;;
64615;SDS011;51027;42.162;24.754;2023-07-13T07:16:53;18.02;;;8.98;;
64615;SDS011;51027;42.162;24.754;2023-07-13T07:19:18;16.52;;;7.93;;
64615;SDS011;51027;42.162;24.754;2023-07-13T07:21:44;17.50;;;8.45;;
64615;SDS011;51027;42.162;24.754;2023-07-13T07:24:09;17.48;;;8.52;;
64615;SDS011;51027;42.162;24.754;2023-07-13T07:26:35;17.42;;;8.25;;
64615;SDS011;51027;42.162;24.754;2023-07-13T07:29:00;19.58;;;8.80;;
64615;SDS011;51027;42.162;24.754;2023-07-13T07:31:25;16.63;;;8.35;;
64615;SDS011;51027;42.162;24.754;2023-07-13T07:33:51;16.85;;;8.50;;
64615;SDS011;51027;42.162;24.754;2023-07-13T07:36:16;18.23;;;8.18;;
64615;SDS011;51027;42.162;24.754;2023-07-13T07:38:42;17.02;;;8.35;;
64615;SDS011;51027;42.162;24.754;2023-07-13T07:41:08;17.58;;;8.27;;
64615;SDS011;51027;42.162;24.754;2023-07-13T07:43:34;17.33;;;8.45;;
64615;SDS011;51027;42.162;24.754;2023-07-13T07:46:00;17.15;;;8.45;;
64615;SDS011;51027;42.162;24.754;2023-07-13T07:48:25;18.27;;;8.23;;
64615;SDS011;51027;42.162;24.754;2023-07-13T07:50:51;15.63;;;7.75;;
64615;SDS011;51027;42.162;24.754;2023-07-13T07:53:16;18.30;;;7.97;;
64615;SDS011;51027;42.162;24.754;2023-07-13T07:55:42;17.42;;;7.90;;
64615;SDS011;51027;42.162;24.754;2023-07-13T07:58:07;17.80;;;8.57;;
64615;SDS011;51027;42.162;24.754;2023-07-13T08:00:33;17.08;;;8.13;;
64615;SDS011;51027;42.162;24.754;2023-07-13T08:03:00;20.20;;;8.93;;
64615;SDS011;51027;42.162;24.754;2023-07-13T08:05:26;18.70;;;9.10;;
64615;SDS011;51027;42.162;24.754;2023-07-13T08:07:52;16.77;;;8.48;;
64615;SDS011;51027;42.162;24.754;2023-07-13T08:10:17;16.10;;;8.32;;
64615;SDS011;51027;42.162;24.754;2023-07-13T08:12:43;16.65;;;8.32;;
64615;SDS011;51027;42.162;24.754;2023-07-13T08:15:10;17.27;;;8.93;;
64615;SDS011;51027;42.162;24.754;2023-07-13T08:17:37;17.20;;;8.10;;
64615;SDS011;51027;42.162;24.754;2023-07-13T08:20:02;19.80;;;9.10;;
64615;SDS011;51027;42.162;24.754;2023-07-13T08:22:28;16.95;;;8.98;;
64615;SDS011;51027;42.162;24.754;2023-07-13T08:24:54;18.73;;;8.25;;
64615;SDS011;51027;42.162;24.754;2023-07-13T08:27:24;16.40;;;8.27;;
64615;SDS011;51027;42.162;24.754;2023-07-13T08:29:51;19.70;;;9.25;;
64615;SDS011;51027;42.162;24.754;2023-07-13T08:32:18;17.13;;;8.10;;
64615;SDS011;51027;42.162;24.754;2023-07-13T08:34:45;15.90;;;7.47;;
64615;SDS011;51027;42.162;24.754;2023-07-13T08:37:11;17.60;;;7.95;;
64615;SDS011;51027;42.162;24.754;2023-07-13T08:39:37;17.65;;;8.20;;
64615;SDS011;51027;42.162;24.754;2023-07-13T08:42:07;16.13;;;8.30;;
64615;SDS011;51027;42.162;24.754;2023-07-13T08:44:49;17.15;;;8.55;;
64615;SDS011;51027;42.162;24.754;2023-07-13T08:47:16;19.30;;;8.40;;
64615;SDS011;51027;42.162;24.754;2023-07-13T08:49:45;15.70;;;8.43;;
64615;SDS011;51027;42.162;24.754;2023-07-13T08:52:13;19.67;;;8.98;;
64615;SDS011;51027;42.162;24.754;2023-07-13T08:54:41;16.73;;;8.25;;
64615;SDS011;51027;42.162;24.754;2023-07-13T08:57:13;21.95;;;8.63;;
64615;SDS011;51027;42.162;24.754;2023-07-13T08:59:41;17.13;;;8.07;;
64615;SDS011;51027;42.162;24.754;2023-07-13T09:02:14;18.33;;;8.45;;
64615;SDS011;51027;42.162;24.754;2023-07-13T09:12:43;16.88;;;8.05;;
64615;SDS011;51027;42.162;24.754;2023-07-13T09:23:12;17.08;;;7.85;;
64615;SDS011;51027;42.162;24.754;2023-07-13T09:25:43;15.60;;;7.30;;
64615;SDS011;51027;42.162;24.754;2023-07-13T09:28:15;17.30;;;7.95;;
64615;SDS011;51027;42.162;24.754;2023-07-13T09:30:52;16.25;;;6.88;;
64615;SDS011;51027;42.162;24.754;2023-07-13T09:35:50;14.55;;;6.43;;
64615;SDS011;51027;42.162;24.754;2023-07-13T09:38:17;14.75;;;6.07;;
64615;SDS011;51027;42.162;24.754;2023-07-13T09:43:17;14.90;;;6.10;;
64615;SDS011;51027;42.162;24.754;2023-07-13T09:45:46;14.80;;;6.50;;
64615;SDS011;51027;42.162;24.754;2023-07-13T09:48:13;14.50;;;6.35;;
64615;SDS011;51027;42.162;24.754;2023-07-13T09:50:41;17.45;;;6.82;;
64615;SDS011;51027;42.162;24.754;2023-07-13T09:53:11;14.52;;;6.57;;
64615;SDS011;51027;42.162;24.754;2023-07-13T09:55:38;15.25;;;5.93;;
64615;SDS011;51027;42.162;24.754;2023-07-13T09:58:16;14.50;;;6.38;;
64615;SDS011;51027;42.162;24.754;2023-07-13T10:00:55;14.88;;;6.28;;
64615;SDS011;51027;42.162;24.754;2023-07-13T10:03:26;13.23;;;5.45;;
64615;SDS011;51027;42.162;24.754;2023-07-13T10:05:53;15.30;;;6.28;;
64615;SDS011;51027;42.162;24.754;2023-07-13T10:08:26;14.52;;;6.53;;
64615;SDS011;51027;42.162;24.754;2023-07-13T10:14:01;15.23;;;6.20;;
64615;SDS011;51027;42.162;24.754;2023-07-13T10:16:34;14.68;;;6.15;;
64615;SDS011;51027;42.162;24.754;2023-07-13T10:19:02;14.57;;;6.10;;
64615;SDS011;51027;42.162;24.754;2023-07-13T10:21:37;15.15;;;6.50;;
64615;SDS011;51027;42.162;24.754;2023-07-13T10:26:39;13.18;;;5.60;;
64615;SDS011;51027;42.162;24.754;2023-07-13T10:29:11;14.57;;;6.55;;
64615;SDS011;51027;42.162;24.754;2023-07-13T10:31:40;16.65;;;6.47;;
64615;SDS011;51027;42.162;24.754;2023-07-13T10:34:10;15.15;;;6.13;;
64615;SDS011;51027;42.162;24.754;2023-07-13T10:36:42;15.15;;;5.45;;
64615;SDS011;51027;42.162;24.754;2023-07-13T10:39:18;14.10;;;5.40;;
64615;SDS011;51027;42.162;24.754;2023-07-13T10:41:46;15.35;;;5.90;;
64615;SDS011;51027;42.162;24.754;2023-07-13T10:44:21;16.23;;;6.13;;
64615;SDS011;51027;42.162;24.754;2023-07-13T10:46:52;14.35;;;5.95;;
64615;SDS011;51027;42.162;24.754;2023-07-13T10:49:22;16.65;;;5.93;;
64615;SDS011;51027;42.162;24.754;2023-07-13T10:51:49;14.00;;;5.90;;
64615;SDS011;51027;42.162;24.754;2023-07-13T10:56:50;13.95;;;6.35;;
64615;SDS011;51027;42.162;24.754;2023-07-13T10:59:19;12.60;;;5.28;;
64615;SDS011;51027;42.162;24.754;2023-07-13T11:01:56;13.52;;;5.70;;
64615;SDS011;51027;42.162;24.754;2023-07-13T11:04:24;13.43;;;5.38;;
64615;SDS011;51027;42.162;24.754;2023-07-13T11:09:40;12.68;;;4.68;;
64615;SDS011;51027;42.162;24.754;2023-07-13T11:12:10;12.25;;;5.00;;
64615;SDS011;51027;42.162;24.754;2023-07-13T11:17:25;13.93;;;5.28;;
64615;SDS011;51027;42.162;24.754;2023-07-13T11:25:34;15.48;;;5.40;;
64615;SDS011;51027;42.162;24.754;2023-07-13T11:28:11;12.32;;;4.97;;
64615;SDS011;51027;42.162;24.754;2023-07-13T11:33:28;12.63;;;4.80;;
64615;SDS011;51027;42.162;24.754;2023-07-13T11:36:04;11.88;;;4.75;;
64615;SDS011;51027;42.162;24.754;2023-07-13T11:40:58;12.52;;;4.60;;
64615;SDS011;51027;42.162;24.754;2023-07-13T11:43:28;11.32;;;4.47;;
64615;SDS011;51027;42.162;24.754;2023-07-13T11:45:54;13.13;;;4.80;;
64615;SDS011;51027;42.162;24.754;2023-07-13T11:48:27;13.27;;;5.10;;
64615;SDS011;51027;42.162;24.754;2023-07-13T11:50:56;15.93;;;4.93;;
64615;SDS011;51027;42.162;24.754;2023-07-13T11:53:27;14.57;;;5.28;;
64615;SDS011;51027;42.162;24.754;2023-07-13T11:56:04;13.40;;;4.95;;
64615;SDS011;51027;42.162;24.754;2023-07-13T11:58:30;15.70;;;5.30;;
64615;SDS011;51027;42.162;24.754;2023-07-13T12:00:57;13.40;;;4.95;;
64615;SDS011;51027;42.162;24.754;2023-07-13T12:03:25;13.70;;;5.03;;
64615;SDS011;51027;42.162;24.754;2023-07-13T12:06:02;12.93;;;5.15;;
64615;SDS011;51027;42.162;24.754;2023-07-13T12:08:31;11.73;;;4.78;;
64615;SDS011;51027;42.162;24.754;2023-07-13T12:11:04;14.32;;;5.05;;
64615;SDS011;51027;42.162;24.754;2023-07-13T12:13:37;14.52;;;5.35;;
64615;SDS011;51027;42.162;24.754;2023-07-13T12:16:10;13.55;;;5.00;;
64615;SDS011;51027;42.162;24.754;2023-07-13T12:18:39;14.00;;;5.32;;
64615;SDS011;51027;42.162;24.754;2023-07-13T12:21:05;13.13;;;5.20;;
64615;SDS011;51027;42.162;24.754;2023-07-13T12:23:33;16.77;;;5.28;;
64615;SDS011;51027;42.162;24.754;2023-07-13T12:26:04;12.90;;;4.95;;
64615;SDS011;51027;42.162;24.754;2023-07-13T12:31:03;12.75;;;5.00;;
64615;SDS011;51027;42.162;24.754;2023-07-13T12:33:31;13.32;;;5.05;;
64615;SDS011;51027;42.162;24.754;2023-07-13T12:35:59;14.00;;;4.88;;
64615;SDS011;51027;42.162;24.754;2023-07-13T12:38:27;11.48;;;4.47;;
64615;SDS011;51027;42.162;24.754;2023-07-13T12:40:54;14.30;;;5.10;;
64615;SDS011;51027;42.162;24.754;2023-07-13T12:43:20;14.07;;;5.28;;
64615;SDS011;51027;42.162;24.754;2023-07-13T12:48:48;14.82;;;5.25;;
64615;SDS011;51027;42.162;24.754;2023-07-13T12:51:16;13.80;;;4.95;;
64615;SDS011;51027;42.162;24.754;2023-07-13T12:53:43;14.20;;;5.15;;
64615;SDS011;51027;42.162;24.754;2023-07-13T12:56:21;13.50;;;5.10;;
64615;SDS011;51027;42.162;24.754;2023-07-13T12:58:48;13.55;;;5.03;;
64615;SDS011;51027;42.162;24.754;2023-07-13T13:01:20;16.92;;;5.68;;
64615;SDS011;51027;42.162;24.754;2023-07-13T13:08:43;15.25;;;5.35;;
64615;SDS011;51027;42.162;24.754;2023-07-13T13:11:10;14.55;;;5.72;;
64615;SDS011;51027;42.162;24.754;2023-07-13T13:13:36;14.65;;;5.38;;
64615;SDS011;51027;42.162;24.754;2023-07-13T13:16:02;14.15;;;5.60;;
64615;SDS011;51027;42.162;24.754;2023-07-13T13:18:34;14.52;;;5.60;;
64615;SDS011;51027;42.162;24.754;2023-07-13T13:21:01;14.55;;;5.60;;
64615;SDS011;51027;42.162;24.754;2023-07-13T13:23:26;14.02;;;5.60;;
64615;SDS011;51027;42.162;24.754;2023-07-13T13:25:52;15.15;;;6.13;;
64615;SDS011;51027;42.162;24.754;2023-07-13T13:28:18;15.38;;;5.95;;
64615;SDS011;51027;42.162;24.754;2023-07-13T13:30:47;14.38;;;5.60;;
64615;SDS011;51027;42.162;24.754;2023-07-13T13:33:20;13.63;;;5.82;;
64615;SDS011;51027;42.162;24.754;2023-07-13T13:35:46;14.95;;;5.18;;
64615;SDS011;51027;42.162;24.754;2023-07-13T13:38:16;14.27;;;5.93;;
64615;SDS011;51027;42.162;24.754;2023-07-13T13:40:44;14.30;;;5.85;;
64615;SDS011;51027;42.162;24.754;2023-07-13T13:43:14;14.40;;;5.60;;
64615;SDS011;51027;42.162;24.754;2023-07-13T13:45:41;14.95;;;5.93;;
64615;SDS011;51027;42.162;24.754;2023-07-13T13:48:08;14.13;;;5.47;;
64615;SDS011;51027;42.162;24.754;2023-07-13T13:50:39;13.90;;;5.30;;
64615;SDS011;51027;42.162;24.754;2023-07-13T13:53:07;15.75;;;5.68;;
64615;SDS011;51027;42.162;24.754;2023-07-13T13:55:35;14.82;;;5.95;;
64615;SDS011;51027;42.162;24.754;2023-07-13T13:58:00;13.60;;;5.30;;
64615;SDS011;51027;42.162;24.754;2023-07-13T14:00:25;16.40;;;5.88;;
64615;SDS011;51027;42.162;24.754;2023-07-13T14:02:51;14.65;;;5.20;;
64615;SDS011;51027;42.162;24.754;2023-07-13T14:05:21;14.43;;;5.60;;
64615;SDS011;51027;42.162;24.754;2023-07-13T14:07:47;16.35;;;6.40;;
64615;SDS011;51027;42.162;24.754;2023-07-13T14:10:14;13.60;;;5.35;;
64615;SDS011;51027;42.162;24.754;2023-07-13T14:12:44;14.27;;;5.43;;
64615;SDS011;51027;42.162;24.754;2023-07-13T14:15:45;13.52;;;5.50;;
64615;SDS011;51027;42.162;24.754;2023-07-13T14:18:03;13.32;;;5.38;;
64615;SDS011;51027;42.162;24.754;2023-07-13T14:20:29;14.60;;;5.53;;
64615;SDS011;51027;42.162;24.754;2023-07-13T14:22:55;15.30;;;5.60;;
64615;SDS011;51027;42.162;24.754;2023-07-13T14:25:20;13.88;;;5.38;;
64615;SDS011;51027;42.162;24.754;2023-07-13T14:27:46;13.18;;;5.05;;
64615;SDS011;51027;42.162;24.754;2023-07-13T14:30:18;15.88;;;5.32;;
64615;SDS011;51027;42.162;24.754;2023-07-13T14:32:45;15.02;;;5.10;;
64615;SDS011;51027;42.162;24.754;2023-07-13T14:35:11;14.80;;;5.53;;
64615;SDS011;51027;42.162;24.754;2023-07-13T14:37:38;14.02;;;5.60;;
64615;SDS011;51027;42.162;24.754;2023-07-13T14:40:12;13.48;;;5.13;;
64615;SDS011;51027;42.162;24.754;2023-07-13T14:42:38;13.10;;;5.20;;
64615;SDS011;51027;42.162;24.754;2023-07-13T14:45:03;13.55;;;5.30;;
64615;SDS011;51027;42.162;24.754;2023-07-13T14:47:29;13.02;;;5.38;;
64615;SDS011;51027;42.162;24.754;2023-07-13T14:49:54;16.27;;;5.78;;
64615;SDS011;51027;42.162;24.754;2023-07-13T14:52:21;14.63;;;5.35;;
64615;SDS011;51027;42.162;24.754;2023-07-13T14:54:48;16.67;;;5.53;;
64615;SDS011;51027;42.162;24.754;2023-07-13T14:57:17;14.02;;;5.57;;
64615;SDS011;51027;42.162;24.754;2023-07-13T14:59:45;15.60;;;6.40;;
64615;SDS011;51027;42.162;24.754;2023-07-13T15:04:39;15.30;;;5.30;;
64615;SDS011;51027;42.162;24.754;2023-07-13T15:07:04;14.10;;;5.20;;
64615;SDS011;51027;42.162;24.754;2023-07-13T15:09:30;16.33;;;5.78;;
64615;SDS011;51027;42.162;24.754;2023-07-13T15:11:56;15.32;;;5.90;;
64615;SDS011;51027;42.162;24.754;2023-07-13T15:14:21;15.60;;;6.25;;
64615;SDS011;51027;42.162;24.754;2023-07-13T15:16:49;14.73;;;5.75;;
64615;SDS011;51027;42.162;24.754;2023-07-13T15:19:17;13.15;;;5.50;;
64615;SDS011;51027;42.162;24.754;2023-07-13T15:21:43;14.55;;;5.68;;
64615;SDS011;51027;42.162;24.754;2023-07-13T15:24:11;15.35;;;7.07;;
64615;SDS011;51027;42.162;24.754;2023-07-13T15:26:38;15.85;;;6.07;;
64615;SDS011;51027;42.162;24.754;2023-07-13T15:29:04;15.25;;;5.75;;
64615;SDS011;51027;42.162;24.754;2023-07-13T15:31:29;14.35;;;5.18;;
64615;SDS011;51027;42.162;24.754;2023-07-13T15:33:57;16.35;;;5.43;;
64615;SDS011;51027;42.162;24.754;2023-07-13T15:36:24;16.08;;;5.43;;
64615;SDS011;51027;42.162;24.754;2023-07-13T15:38:51;17.27;;;6.15;;
64615;SDS011;51027;42.162;24.754;2023-07-13T15:41:25;17.57;;;5.20;;
64615;SDS011;51027;42.162;24.754;2023-07-13T15:43:53;16.48;;;6.38;;
64615;SDS011;51027;42.162;24.754;2023-07-13T15:46:21;17.02;;;6.13;;
64615;SDS011;51027;42.162;24.754;2023-07-13T15:48:48;15.23;;;5.50;;
64615;SDS011;51027;42.162;24.754;2023-07-13T15:51:24;16.42;;;5.65;;
64615;SDS011;51027;42.162;24.754;2023-07-13T15:53:56;15.25;;;5.97;;
64615;SDS011;51027;42.162;24.754;2023-07-13T15:56:25;13.38;;;5.38;;
64615;SDS011;51027;42.162;24.754;2023-07-13T15:58:59;14.95;;;5.35;;
64615;SDS011;51027;42.162;24.754;2023-07-13T16:01:28;14.88;;;5.30;;
64615;SDS011;51027;42.162;24.754;2023-07-13T16:03:57;14.48;;;5.20;;
64615;SDS011;51027;42.162;24.754;2023-07-13T16:06:24;16.58;;;5.90;;
64615;SDS011;51027;42.162;24.754;2023-07-13T16:08:53;15.88;;;5.25;;
64615;SDS011;51027;42.162;24.754;2023-07-13T16:11:20;15.45;;;5.78;;
64615;SDS011;51027;42.162;24.754;2023-07-13T16:13:48;15.30;;;5.55;;
64615;SDS011;51027;42.162;24.754;2023-07-13T16:16:18;15.00;;;5.60;;
64615;SDS011;51027;42.162;24.754;2023-07-13T16:18:44;17.60;;;5.72;;
64615;SDS011;51027;42.162;24.754;2023-07-13T16:21:10;17.65;;;5.60;;
64615;SDS011;51027;42.162;24.754;2023-07-13T16:23:37;16.90;;;6.38;;
64615;SDS011;51027;42.162;24.754;2023-07-13T16:26:04;14.35;;;4.65;;
64615;SDS011;51027;42.162;24.754;2023-07-13T16:28:41;17.90;;;6.40;;
64615;SDS011;51027;42.162;24.754;2023-07-13T16:31:08;15.18;;;5.80;;
64615;SDS011;51027;42.162;24.754;2023-07-13T16:33:35;15.32;;;6.07;;
64615;SDS011;51027;42.162;24.754;2023-07-13T16:36:00;16.65;;;5.78;;
64615;SDS011;51027;42.162;24.754;2023-07-13T16:38:27;14.20;;;5.07;;
64615;SDS011;51027;42.162;24.754;2023-07-13T16:40:55;17.38;;;5.40;;
64615;SDS011;51027;42.162;24.754;2023-07-13T16:43:20;15.20;;;5.35;;
64615;SDS011;51027;42.162;24.754;2023-07-13T16:45:48;15.50;;;5.57;;
64615;SDS011;51027;42.162;24.754;2023-07-13T16:48:19;13.55;;;5.18;;
64615;SDS011;51027;42.162;24.754;2023-07-13T16:50:53;16.00;;;5.72;;
64615;SDS011;51027;42.162;24.754;2023-07-13T16:53:21;15.18;;;5.57;;
64615;SDS011;51027;42.162;24.754;2023-07-13T16:55:53;15.48;;;4.95;;
64615;SDS011;51027;42.162;24.754;2023-07-13T16:58:21;18.38;;;5.65;;
64615;SDS011;51027;42.162;24.754;2023-07-13T17:00:50;14.25;;;5.53;;
64615;SDS011;51027;42.162;24.754;2023-07-13T17:03:17;13.43;;;5.18;;
64615;SDS011;51027;42.162;24.754;2023-07-13T17:05:43;15.68;;;6.10;;
64615;SDS011;51027;42.162;24.754;2023-07-13T17:08:23;15.40;;;5.43;;
64615;SDS011;51027;42.162;24.754;2023-07-13T17:10:57;15.82;;;5.53;;
64615;SDS011;51027;42.162;24.754;2023-07-13T17:13:25;17.63;;;6.38;;
64615;SDS011;51027;42.162;24.754;2023-07-13T17:15:52;16.27;;;5.90;;
64615;SDS011;51027;42.162;24.754;2023-07-13T17:18:22;17.02;;;5.72;;
64615;SDS011;51027;42.162;24.754;2023-07-13T17:20:52;16.45;;;5.25;;
64615;SDS011;51027;42.162;24.754;2023-07-13T17:23:20;15.43;;;5.90;;
64615;SDS011;51027;42.162;24.754;2023-07-13T17:28:14;19.98;;;6.30;;
64615;SDS011;51027;42.162;24.754;2023-07-13T17:30:41;18.52;;;6.00;;
64615;SDS011;51027;42.162;24.754;2023-07-13T17:33:28;15.38;;;5.50;;
64615;SDS011;51027;42.162;24.754;2023-07-13T17:35:57;16.15;;;5.57;;
64615;SDS011;51027;42.162;24.754;2023-07-13T17:38:31;22.77;;;9.63;;
64615;SDS011;51027;42.162;24.754;2023-07-13T17:40:56;18.80;;;7.15;;
64615;SDS011;51027;42.162;24.754;2023-07-13T17:43:22;17.67;;;7.18;;
64615;SDS011;51027;42.162;24.754;2023-07-13T17:45:48;18.88;;;7.30;;
64615;SDS011;51027;42.162;24.754;2023-07-13T17:48:14;20.17;;;8.68;;
64615;SDS011;51027;42.162;24.754;2023-07-13T17:50:39;15.95;;;7.05;;
64615;SDS011;51027;42.162;24.754;2023-07-13T17:53:19;19.73;;;6.75;;
64615;SDS011;51027;42.162;24.754;2023-07-13T17:55:46;17.23;;;6.40;;
64615;SDS011;51027;42.162;24.754;2023-07-13T17:58:13;18.70;;;6.88;;
64615;SDS011;51027;42.162;24.754;2023-07-13T18:00:40;15.38;;;6.32;;
64615;SDS011;51027;42.162;24.754;2023-07-13T18:05:52;17.50;;;6.97;;
64615;SDS011;51027;42.162;24.754;2023-07-13T18:10:55;19.20;;;7.43;;
64615;SDS011;51027;42.162;24.754;2023-07-13T18:13:23;21.45;;;7.70;;
64615;SDS011;51027;42.162;24.754;2023-07-13T18:15:49;18.48;;;7.38;;
64615;SDS011;51027;42.162;24.754;2023-07-13T18:18:17;17.90;;;8.10;;
64615;SDS011;51027;42.162;24.754;2023-07-13T18:20:43;22.15;;;8.23;;
64615;SDS011;51027;42.162;24.754;2023-07-13T18:23:14;18.40;;;7.07;;
64615;SDS011;51027;42.162;24.754;2023-07-13T18:25:42;17.92;;;6.82;;
64615;SDS011;51027;42.162;24.754;2023-07-13T18:28:10;17.25;;;6.90;;
64615;SDS011;51027;42.162;24.754;2023-07-13T18:30:38;15.40;;;6.43;;
64615;SDS011;51027;42.162;24.754;2023-07-13T18:33:04;15.70;;;6.30;;
64615;SDS011;51027;42.162;24.754;2023-07-13T18:35:38;19.75;;;8.07;;
64615;SDS011;51027;42.162;24.754;2023-07-13T18:38:03;18.95;;;6.60;;
64615;SDS011;51027;42.162;24.754;2023-07-13T18:40:29;15.40;;;5.50;;
64615;SDS011;51027;42.162;24.754;2023-07-13T18:42:54;19.00;;;6.22;;
64615;SDS011;51027;42.162;24.754;2023-07-13T18:45:20;16.08;;;5.80;;
64615;SDS011;51027;42.162;24.754;2023-07-13T18:47:47;20.30;;;6.28;;
64615;SDS011;51027;42.162;24.754;2023-07-13T18:50:31;16.13;;;5.80;;
64615;SDS011;51027;42.162;24.754;2023-07-13T18:52:58;22.97;;;6.30;;
64615;SDS011;51027;42.162;24.754;2023-07-13T18:55:24;16.08;;;5.90;;
64615;SDS011;51027;42.162;24.754;2023-07-13T18:57:50;20.58;;;6.55;;
64615;SDS011;51027;42.162;24.754;2023-07-13T19:02:47;18.40;;;6.13;;
64615;SDS011;51027;42.162;24.754;2023-07-13T19:05:17;16.75;;;5.45;;